Reklama
Líbí se Vám tento web? Budeme velmi rádi, pokud přidáte hodnocení +1

Seznam meteostanic a jejich METAR

Vyhledat místa podle abecedy:
A B C D E F G H I J K L M N O P Q R S T U V W X Y Z

Filtrovat:

ID stanice:
a/nebo
Název místa (fulltext):
 
Místo (ID)Naposledy načteno 
Šerák (Serak) 21.06.2018 02:00 UTC Zobrazit data
Místo: Šerák
Teplota: 14 °C (pocitová: 11.3 °C)
Vítr: 3 m/s z(e) 240°
Počasí:
Dohlednost: 35 km
Zákl. oblačnosti: N/A
Vlhkost: 72%
Svratouch (Svratouch) 21.06.2018 02:00 UTC Zobrazit data
Místo: Svratouch
Teplota: 18 °C (pocitová: 16.3 °C)
Vítr: 4 m/s z(e) 170°
Počasí: skoro zataženo
Dohlednost: 35 km
Zákl. oblačnosti: 7/8 1500 m
Vlhkost: 60%
Saipan Island (PGSN) 21.06.2018 01:54 UTC Zobrazit METAR
PGSN 210154Z 09011KT 10SM FEW019 31/26 A2994 RMK AO2 SLP159 T03110261 $
Salzburg (LOWS) 21.06.2018 01:50 UTC Zobrazit METAR
LOWS 210150Z AUTO 15004KT 9999 NSC 16/14 Q1018
Samara (UWWW) Zatím nenačteno  
San Andres Island (SKSP) 21.06.2018 02:00 UTC Zobrazit METAR
SKSP 210200Z 00000KT 9999 FEW017 OVC200 27/25 A2990
San Jose (MRPV) 20.06.2018 20:00 UTC Zobrazit METAR
MRPV 202000Z 29010KT 9999 SCT035 SCT250 26/18 A3002 NOSIG
San Juan (TJSJ) 21.06.2018 01:56 UTC Zobrazit METAR
TJSJ 210156Z 15005KT 10SM FEW040 28/23 A3005 RMK AO2 SLP176 OCNL LTGIC DSNT N CB DSNT N T02780233
San Salvador (MSLP) 21.06.2018 01:50 UTC Zobrazit METAR
MSLP 210150Z VRB02KT 9999 FEW020 26/24 Q1012 A2989 NOSIG
Sanaa (OYSN) 08.02.2017 13:00 UTC Zobrazit METAR
OYSN 081300Z 03008KT 9999 FEW030 25/M05 Q1022
Santiago (SCEL) 21.06.2018 02:00 UTC Zobrazit METAR
SCEL 210200Z 35005KT 310V010 8000 NSC 07/04 Q1025 NOSIG
Santiago (LEST) 21.06.2018 02:00 UTC Zobrazit METAR
LEST 210200Z 05003KT 010V120 7000 NSC 17/16 Q1019 NOSIG
Santo Domingo (MDHE) 08.04.2012 12:00 UTC  
Santorini (LGSR) 21.06.2018 01:50 UTC Zobrazit METAR
LGSR 210150Z 27010KT CAVOK 22/19 Q1013
Sao Tome (FPST) 16.04.2018 10:00 UTC Zobrazit METAR
FPST 161000Z 13014KT 9999 FEW025 SCT040 30/25 Q1014 NOSIG
Sarajevo (LQSA) 21.06.2018 02:00 UTC Zobrazit METAR
LQSA 210200Z VRB01KT CAVOK 14/14 Q1020
Saratov (UWSS) 06.03.2017 17:00 UTC Zobrazit METAR
UWSS 061700Z CAVOK 04/00 Q1024 R12/190055 NOSIG RMK QFE756
Sarmellek (LHSM) 20.06.2018 10:45 UTC Zobrazit METAR
LHSM 201045Z 04004KT 9999 FEW037 28/18 Q1022 NOSIG
Seinajoki (EFSI) 21.06.2018 01:50 UTC Zobrazit METAR
EFSI 210150Z AUTO 15001KT CAVOK 04/03 Q1003
Seoul/Incheon (RKSI) 21.06.2018 02:00 UTC Zobrazit METAR
RKSI 210200Z 29004KT 9999 FEW030 22/13 Q1008 NOSIG
Seville (LEZL) 21.06.2018 02:00 UTC Zobrazit METAR
LEZL 210200Z 29004KT CAVOK 21/18 Q1015 NOSIG
Seychelles (FSIA) 11.06.2018 06:00 UTC Zobrazit METAR
FSIA 110600Z 18020KT //// //// 26/23 Q1014
Shymkent (UAII) Zatím nenačteno  
Siauliai (EYSA) 20.06.2018 23:50 UTC Zobrazit METAR
EYSA 202350Z 21011KT CAVOK 14/10 Q1013 BLU NOSIG
Sibiu (LRSB) 21.06.2018 02:00 UTC Zobrazit METAR
LRSB 210200Z 00000KT CAVOK 17/17 Q1020
Simferopol' (UKFF) Zatím nenačteno  
Singapore (WSSS) 21.06.2018 02:00 UTC Zobrazit METAR
WSSS 210200Z VRB01KT 7000 FEW016 BKN070 BKN150 29/26 Q1012 NOSIG
Skopje (LWSK) 21.06.2018 02:00 UTC Zobrazit METAR
LWSK 210200Z 00000KT CAVOK 16/15 Q1019 NOSIG
Soderhamn (ESNY) Zatím nenačteno  
Sofia (LBSF) 21.06.2018 02:00 UTC Zobrazit METAR
LBSF 210200Z 00000KT CAVOK 17/15 Q1020 NOSIG
Sonderborg (EKSB) 20.06.2018 20:50 UTC Zobrazit METAR
EKSB 202050Z 24008KT 210V270 9999 BKN011 17/15 Q1013
Split (LDSP) 21.06.2018 02:00 UTC Zobrazit METAR
LDSP 210200Z AUTO 34004KT CAVOK 23/16 Q1016 NOSIG
St. Denis (FMEE) 21.06.2018 02:00 UTC Zobrazit METAR
FMEE 210200Z 19007KT 9999 FEW100 19/15 Q1020 NOSIG
St. Georges (TGPY) 21.06.2018 02:00 UTC Zobrazit METAR
TGPY 210200Z 00000KT 9999 FEW020 25/22 Q1016 NOSIG
St. Johns (TAPA) 21.06.2018 02:00 UTC Zobrazit METAR
TAPA 210200Z 11006KT 9999 FEW018 27/22 Q1018 NOSIG
St. Petersburg (ULLI) Zatím nenačteno  
St. Pierre Island (LFVP) 21.06.2018 01:00 UTC Zobrazit METAR
LFVP 210100Z 22006KT CAVOK 06/05 Q1007 NOSIG
Stavanger (ENZV) 21.06.2018 01:50 UTC Zobrazit METAR
ENZV 210150Z 35007KT 9999 VCSH FEW028 SCT049 BKN070 09/06 Q1010
Stockholm (ESSA) 21.06.2018 01:50 UTC Zobrazit METAR
ESSA 210150Z 08003KT 9999 FEW010 BKN014 08/08 Q1004 BECMG BKN008
Strasbourg (LFST) 21.06.2018 01:00 UTC Zobrazit METAR
LFST 210100Z AUTO VRB02KT CAVOK 18/16 Q1017 NOSIG
Stuttgart (EDDS) 21.06.2018 01:50 UTC Zobrazit METAR
EDDS 210150Z 00000KT CAVOK 18/15 Q1017
Reklama

Počasí na Váš email

Emaily jsou bez reklamy a bez spamu



Odhlásit newsletter

Reklama


Lunární kalendář

  • 28.06.
  • 06.07.
  • 13.07.
  • 19.07.



Slunečno.cz na Google+

Reklama


Reklama
Povinné ručení
Reklama




Reklama